Terminal Aerodrome Forecast
Issued by NWS Jacksonville, FL

Home | Current Version | Previous Version | Text Only | Print | Product List | Glossary On
Versions: 1 2 3 4 5 6 7 8 9 10 11 12 13 14 15 16 17 18 19 20 21
000
FTUS42 KJAX 222320
TAFJAX
TAF
KJAX 222320Z 2300/2324 21006G16KT P6SM VCTS FEW045CB SCT060 BKN120
     FM230200 VRB02KT P6SM SCT030 BKN250
     FM231300 18008KT P6SM BKN100
     FM231800 15012KT P6SM SCT250=

USA.gov is the U.S. government's official web portal to all federal, state and local government web resources and services.